EDT,Max TemperatureF,Mean TemperatureF,Min TemperatureF,Max Dew PointF,MeanDew PointF,Min DewpointF,Max Humidity, Mean Humidity, Min Humidity, Max Sea Level PressureIn, Mean Sea Level PressureIn, Min Sea Level PressureIn, Max VisibilityMiles, Mean VisibilityMiles, Min VisibilityMiles, Max Wind SpeedMPH, Mean Wind SpeedMPH, Max Gust SpeedMPH,PrecipitationIn, CloudCover, Events, WindDirDegrees
2013-4-1,46,39,32,37,23,10,87,59,30,30.06,29.89,29.67,10,9,1,15,12,31,0.01,6,Snow,308
2013-4-2,39,30,21,19,14,10,74,50,30,30.20,30.14,30.05,10,10,6,17,11,24,0.00,6,Snow,293
2013-4-3,37,31,24,18,13,9,69,49,35,30.44,30.34,30.21,10,10,10,17,8,26,0.00,1,,332
2013-4-4,54,36,19,15,12,9,74,42,18,30.41,30.19,29.97,10,10,10,10,3,,0.00,0,,182
2013-4-5,48,38,27,30,22,16,78,53,34,30.22,30.06,29.93,10,10,9,16,6,24,0.00,1,,358
2013-4-6,55,39,23,19,13,9,69,37,16,30.28,30.16,29.94,10,10,10,12,4,18,0.00,2,,163
2013-4-7,73,58,45,43,33,12,71,40,20,30.01,29.88,29.81,10,10,10,26,14,36,0.00,1,,225
2013-4-8,71,54,39,51,43,34,83,61,42,30.04,29.94,29.85,10,10,7,20,7,30,0.00,4,,194
2013-4-9,79,62,46,54,49,41,80,57,42,30.09,29.98,29.88,10,10,7,21,9,29,0.00,4,,228
2013-4-10,73,62,50,64,54,48,100,80,53,29.92,29.88,29.81,10,7,2,18,8,45,0.98,7,Rain,252
2013-4-11,55,50,46,54,48,45,100,94,86,29.90,29.79,29.58,10,5,0,13,5,,0.28,8,Fog-Rain,60
2013-4-12,59,49,39,57,44,33,100,87,66,29.86,29.64,29.45,10,8,4,22,11,30,0.36,8,Rain,236
2013-4-13,44,39,34,35,32,26,79,70,58,30.04,29.92,29.86,10,10,10,20,12,26,0.00,7,Rain,246
2013-4-14,57,42,28,36,32,25,89,63,44,30.14,30.06,29.98,10,10,10,9,5,,0.00,2,,187
2013-4-15,68,57,48,50,44,36,67,56,48,30.04,29.99,29.94,10,10,10,20,7,28,0.00,3,,178
2013-4-16,73,62,48,59,51,47,97,79,59,30.19,30.09,29.98,10,8,2,18,9,24,0.26,5,Rain,227
2013-4-17,66,55,44,53,45,39,100,78,43,30.28,30.20,30.06,10,6,0,15,3,,0.00,5,Fog,61
2013-4-18,82,70,59,61,56,53,83,60,39,30.04,29.83,29.67,10,10,10,23,12,36,0.00,2,,187
2013-4-19,73,56,39,59,43,27,94,70,48,29.86,29.61,29.40,10,8,2,24,18,40,0.23,6,Rain,232
2013-4-20,45,40,34,31,26,21,82,64,42,30.42,30.10,29.87,10,10,6,18,13,29,0.01,7,Rain-Snow,272
2013-4-21,50,38,28,28,24,21,81,57,33,30.61,30.52,30.45,10,10,10,9,4,,0.00,0,,67
2013-4-22,64,50,35,38,30,24,70,47,31,30.46,30.34,30.22,10,10,10,8,5,17,0.00,0,,106
2013-4-23,71,56,43,40,35,25,60,43,33,30.23,30.08,29.90,10,10,10,17,7,24,0.00,1,,175
2013-4-24,63,50,36,54,43,33,94,86,43,30.17,29.87,29.73,10,7,2,21,11,31,0.79,8,Rain,249
2013-4-25,54,41,30,40,32,28,92,73,44,30.36,30.25,30.18,10,10,8,18,8,29,0.02,3,Rain,234
2013-4-26,57,42,28,35,29,24,96,60,29,30.49,30.43,30.36,10,9,4,10,1,,0.00,0,,223
2013-4-27,71,54,37,40,33,30,86,50,24,30.40,30.28,30.12,10,10,7,9,2,,0.00,0,,150
2013-4-28,57,52,46,55,50,36,100,86,51,30.11,29.96,29.89,10,7,2,9,4,,0.48,7,Rain,157
2013-4-29,64,60,55,56,54,52,94,85,65,30.00,29.94,29.88,10,9,2,12,7,17,0.09,7,Rain,199
2013-4-30,73,60,46,55,50,45,100,82,44,30.14,30.06,30.01,10,5,0,9,1,16,0.00,1,Fog,149